Portada
METAR-TAF:

METAR-TAF

Aeroports :

Bordeus, França

latitud: 44-50N, longitud: 000-42W, altitud: 49 m

Observació

L'informe es va fer fa 19 minuts, a les 20:30 UTC
Vent 4 kt del Sud/Sud-Est
Temperatura 6°C
Humitat 100%
Pressió 1006 hPa
Visibilitat: 5000 m
neu, pluja, boirina

METAR: LFBD 222030Z AUTO 16004KT 5000 -SNRA BR FEW015/// SCT023/// BKN035/// ///TCU 06/06 Q1006 TEMPO SHRA

Hora: 21:49 (20:49 UTC)

Pronòstic

L'informe es va fer fa 3 hores i 49 minuts, a les 17:00 UTC
Pronòstic vàlid del 22 a les 18 UTC al 23 a les 24 UTC
Vent 8 kt del Oest/Sud-Oest
Visibilitat 10 km o més
Núvols disperses a una alçada de 2500 ft
Temporalment
l' 22 a les 18 UTC al 23 a les 10 UTC
Visibilitat: 3000 m
Cel ennuvolat a una alçada de 1500 ft, Cumulus congestus.
xàfecs de pluja
Evolucionant progressivament
l' 23 a les 06 UTC al 23 a les 08 UTC
Vent 13 kt del Nord-Oest

TAF: LFBD 221700Z 2218/2324 24008KT 9999 SCT025 TX08/2312Z TN03/2324Z TEMPO 2218/2310 3000 SHRA BKN015TCU BECMG 2306/2308 32013KT

Observacions i pronòstics meteorològics de més de 4000 aeroports (METAR i TAF).

Les estacions disponibles són els punts grocs i vermells al mapa.

Posi el ratolí al punt desitjat per veure el nom de l'estació.

Feu clic per veure les observacions i els pronòstics meteorològics.

Per canviar el mapa: feu clic els botons verds amb una creu de color negre per apropar; al botó verd amb un guió per allunyar la imatge; o en les fletxes verdes per a mapes adjacents.


METAR-TAF: